LEBA/ODB METAR and TAF weather

Enter ICAO airport designator
Station Type Date Time Source
LEBA METAR 2019/12/12 17:00 UTC NOAA

LEBA 121700Z AUTO 23008KT 200V260 9999 BKN046 14/07 Q1023


Station Type Date Time Source
LEBA Decoded METAR 2019/12/12 17:00 UTC NOAA

Cordoba / Aeropuerto, Spain (LEBA) 37-51N 004-51W 92M
Dec 12, 2019 - 12:00 PM EST / 2019.12.12 1700 UTC
Wind: from the SW (230 degrees) at 9 MPH (8 KT) (direction variable):0
Visibility: greater than 7 mile(s):0
Sky conditions: mostly cloudy
Temperature: 57 F (14 C)
Dew Point: 44 F (7 C)
Relative Humidity: 62%
Pressure (altimeter): 30.21 in. Hg (1023 hPa)
ob: LEBA 121700Z AUTO 23008KT 200V260 9999 BKN046 14/07 Q1023
cycle: 17

Station Type Date Time Source
LEBA TAF 2015/01/24 09:27 UTC NOAA

TAF TAF LEBA 240800Z 2409/2421 VRB02KT CAVOK

Example: see airport list